sensor_id;sensor_type;location;lat;lon;timestamp;P1;durP1;ratioP1;P2;durP2;ratioP2
32347;SDS011;18821;44.800;10.326;2023-10-19T00:00:48;53.17;;;30.73;;
32347;SDS011;18821;44.800;10.326;2023-10-19T00:03:18;51.58;;;31.40;;
32347;SDS011;18821;44.800;10.326;2023-10-19T00:05:45;54.80;;;31.92;;
32347;SDS011;18821;44.800;10.326;2023-10-19T00:08:12;56.13;;;32.05;;
32347;SDS011;18821;44.800;10.326;2023-10-19T00:10:38;59.88;;;33.50;;
32347;SDS011;18821;44.800;10.326;2023-10-19T00:13:09;56.15;;;33.05;;
32347;SDS011;18821;44.800;10.326;2023-10-19T00:15:37;54.50;;;31.67;;
32347;SDS011;18821;44.800;10.326;2023-10-19T00:18:13;55.08;;;31.80;;
32347;SDS011;18821;44.800;10.326;2023-10-19T00:20:43;58.17;;;32.08;;
32347;SDS011;18821;44.800;10.326;2023-10-19T00:23:11;53.95;;;32.65;;
32347;SDS011;18821;44.800;10.326;2023-10-19T00:25:39;51.28;;;30.38;;
32347;SDS011;18821;44.800;10.326;2023-10-19T00:28:10;50.35;;;29.65;;
32347;SDS011;18821;44.800;10.326;2023-10-19T00:30:38;55.25;;;32.08;;
32347;SDS011;18821;44.800;10.326;2023-10-19T00:33:08;58.38;;;33.42;;
32347;SDS011;18821;44.800;10.326;2023-10-19T00:35:45;56.05;;;32.63;;
32347;SDS011;18821;44.800;10.326;2023-10-19T00:38:13;57.25;;;33.25;;
32347;SDS011;18821;44.800;10.326;2023-10-19T00:40:57;54.03;;;31.70;;
32347;SDS011;18821;44.800;10.326;2023-10-19T00:43:52;59.43;;;33.40;;
32347;SDS011;18821;44.800;10.326;2023-10-19T00:46:23;56.13;;;32.53;;
32347;SDS011;18821;44.800;10.326;2023-10-19T00:48:57;62.08;;;32.78;;
32347;SDS011;18821;44.800;10.326;2023-10-19T00:51:31;57.85;;;31.75;;
32347;SDS011;18821;44.800;10.326;2023-10-19T00:56:34;53.15;;;29.25;;
32347;SDS011;18821;44.800;10.326;2023-10-19T00:59:01;53.42;;;29.42;;
32347;SDS011;18821;44.800;10.326;2023-10-19T01:01:40;50.42;;;30.35;;
32347;SDS011;18821;44.800;10.326;2023-10-19T01:04:11;57.28;;;30.38;;
32347;SDS011;18821;44.800;10.326;2023-10-19T01:09:29;49.42;;;27.48;;
32347;SDS011;18821;44.800;10.326;2023-10-19T01:12:00;49.83;;;29.15;;
32347;SDS011;18821;44.800;10.326;2023-10-19T01:14:45;55.70;;;31.40;;
32347;SDS011;18821;44.800;10.326;2023-10-19T01:20:22;48.45;;;28.27;;
32347;SDS011;18821;44.800;10.326;2023-10-19T01:22:57;55.20;;;31.42;;
32347;SDS011;18821;44.800;10.326;2023-10-19T01:25:44;53.10;;;31.23;;
32347;SDS011;18821;44.800;10.326;2023-10-19T01:28:19;48.42;;;29.40;;
32347;SDS011;18821;44.800;10.326;2023-10-19T01:30:49;50.95;;;28.85;;
32347;SDS011;18821;44.800;10.326;2023-10-19T01:33:18;52.75;;;30.45;;
32347;SDS011;18821;44.800;10.326;2023-10-19T01:35:45;56.83;;;29.88;;
32347;SDS011;18821;44.800;10.326;2023-10-19T01:38:37;53.03;;;30.70;;
32347;SDS011;18821;44.800;10.326;2023-10-19T01:41:04;57.70;;;33.40;;
32347;SDS011;18821;44.800;10.326;2023-10-19T01:43:42;59.92;;;33.67;;
32347;SDS011;18821;44.800;10.326;2023-10-19T01:46:09;58.15;;;32.35;;
32347;SDS011;18821;44.800;10.326;2023-10-19T01:48:47;55.83;;;32.85;;
32347;SDS011;18821;44.800;10.326;2023-10-19T01:51:21;60.40;;;34.45;;
32347;SDS011;18821;44.800;10.326;2023-10-19T01:53:52;58.38;;;33.67;;
32347;SDS011;18821;44.800;10.326;2023-10-19T01:56:20;59.85;;;33.65;;
32347;SDS011;18821;44.800;10.326;2023-10-19T01:58:47;60.78;;;33.80;;
32347;SDS011;18821;44.800;10.326;2023-10-19T02:01:14;59.53;;;32.30;;
32347;SDS011;18821;44.800;10.326;2023-10-19T02:03:55;56.90;;;32.05;;
32347;SDS011;18821;44.800;10.326;2023-10-19T02:06:26;59.17;;;33.55;;
32347;SDS011;18821;44.800;10.326;2023-10-19T02:09:04;61.35;;;32.65;;
32347;SDS011;18821;44.800;10.326;2023-10-19T02:11:52;55.53;;;31.85;;
32347;SDS011;18821;44.800;10.326;2023-10-19T02:14:21;57.40;;;32.33;;
32347;SDS011;18821;44.800;10.326;2023-10-19T02:16:49;56.45;;;32.90;;
32347;SDS011;18821;44.800;10.326;2023-10-19T02:19:21;61.25;;;33.42;;
32347;SDS011;18821;44.800;10.326;2023-10-19T02:22:03;54.45;;;31.92;;
32347;SDS011;18821;44.800;10.326;2023-10-19T02:24:32;58.30;;;32.43;;
32347;SDS011;18821;44.800;10.326;2023-10-19T02:26:58;61.13;;;33.50;;
32347;SDS011;18821;44.800;10.326;2023-10-19T02:29:25;57.63;;;33.17;;
32347;SDS011;18821;44.800;10.326;2023-10-19T02:31:51;61.95;;;34.60;;
32347;SDS011;18821;44.800;10.326;2023-10-19T02:34:18;60.22;;;32.67;;
32347;SDS011;18821;44.800;10.326;2023-10-19T02:36:45;62.72;;;32.10;;
32347;SDS011;18821;44.800;10.326;2023-10-19T02:39:13;62.25;;;32.28;;
32347;SDS011;18821;44.800;10.326;2023-10-19T02:41:44;62.83;;;32.90;;
32347;SDS011;18821;44.800;10.326;2023-10-19T02:44:16;61.88;;;34.25;;
32347;SDS011;18821;44.800;10.326;2023-10-19T02:46:44;60.88;;;33.30;;
32347;SDS011;18821;44.800;10.326;2023-10-19T02:49:11;59.85;;;33.60;;
32347;SDS011;18821;44.800;10.326;2023-10-19T02:51:40;70.43;;;36.95;;
32347;SDS011;18821;44.800;10.326;2023-10-19T02:54:10;62.90;;;35.70;;
32347;SDS011;18821;44.800;10.326;2023-10-19T02:56:47;64.43;;;33.97;;
32347;SDS011;18821;44.800;10.326;2023-10-19T02:59:15;65.85;;;35.30;;
32347;SDS011;18821;44.800;10.326;2023-10-19T03:01:42;59.75;;;34.25;;
32347;SDS011;18821;44.800;10.326;2023-10-19T03:04:11;59.00;;;33.13;;
32347;SDS011;18821;44.800;10.326;2023-10-19T03:06:39;60.80;;;34.78;;
32347;SDS011;18821;44.800;10.326;2023-10-19T03:09:06;54.92;;;33.20;;
32347;SDS011;18821;44.800;10.326;2023-10-19T03:11:39;62.53;;;34.58;;
32347;SDS011;18821;44.800;10.326;2023-10-19T03:14:06;61.38;;;33.78;;
32347;SDS011;18821;44.800;10.326;2023-10-19T03:16:33;59.47;;;34.15;;
32347;SDS011;18821;44.800;10.326;2023-10-19T03:19:01;65.75;;;34.83;;
32347;SDS011;18821;44.800;10.326;2023-10-19T03:21:27;56.67;;;33.63;;
32347;SDS011;18821;44.800;10.326;2023-10-19T03:23:53;58.58;;;34.20;;
32347;SDS011;18821;44.800;10.326;2023-10-19T03:26:22;59.15;;;34.58;;
32347;SDS011;18821;44.800;10.326;2023-10-19T03:28:48;60.85;;;34.38;;
32347;SDS011;18821;44.800;10.326;2023-10-19T03:31:22;62.13;;;34.30;;
32347;SDS011;18821;44.800;10.326;2023-10-19T03:33:50;59.05;;;33.75;;
32347;SDS011;18821;44.800;10.326;2023-10-19T03:36:20;58.78;;;33.75;;
32347;SDS011;18821;44.800;10.326;2023-10-19T03:38:47;58.00;;;33.53;;
32347;SDS011;18821;44.800;10.326;2023-10-19T03:41:16;66.43;;;36.92;;
32347;SDS011;18821;44.800;10.326;2023-10-19T03:43:55;67.22;;;35.33;;
32347;SDS011;18821;44.800;10.326;2023-10-19T03:46:23;67.97;;;37.90;;
32347;SDS011;18821;44.800;10.326;2023-10-19T03:48:59;61.78;;;30.77;;
32347;SDS011;18821;44.800;10.326;2023-10-19T03:51:39;63.90;;;35.78;;
32347;SDS011;18821;44.800;10.326;2023-10-19T03:54:06;65.50;;;36.58;;
32347;SDS011;18821;44.800;10.326;2023-10-19T03:56:49;68.43;;;36.67;;
32347;SDS011;18821;44.800;10.326;2023-10-19T03:59:17;75.15;;;38.90;;
32347;SDS011;18821;44.800;10.326;2023-10-19T04:01:43;58.88;;;32.45;;
32347;SDS011;18821;44.800;10.326;2023-10-19T04:04:10;67.35;;;37.30;;
32347;SDS011;18821;44.800;10.326;2023-10-19T04:06:36;66.53;;;35.25;;
32347;SDS011;18821;44.800;10.326;2023-10-19T04:09:03;68.65;;;36.22;;
32347;SDS011;18821;44.800;10.326;2023-10-19T04:11:32;73.15;;;37.80;;
32347;SDS011;18821;44.800;10.326;2023-10-19T04:14:10;70.07;;;39.28;;
32347;SDS011;18821;44.800;10.326;2023-10-19T04:16:38;76.10;;;41.55;;
32347;SDS011;18821;44.800;10.326;2023-10-19T04:19:12;80.30;;;42.33;;
32347;SDS011;18821;44.800;10.326;2023-10-19T04:21:42;78.20;;;41.08;;
32347;SDS011;18821;44.800;10.326;2023-10-19T04:24:16;84.13;;;43.55;;
32347;SDS011;18821;44.800;10.326;2023-10-19T04:26:44;72.40;;;39.90;;
32347;SDS011;18821;44.800;10.326;2023-10-19T04:29:10;74.95;;;41.38;;
32347;SDS011;18821;44.800;10.326;2023-10-19T04:31:37;81.68;;;43.10;;
32347;SDS011;18821;44.800;10.326;2023-10-19T04:34:14;78.10;;;41.72;;
32347;SDS011;18821;44.800;10.326;2023-10-19T04:36:41;80.35;;;40.15;;
32347;SDS011;18821;44.800;10.326;2023-10-19T04:39:08;74.45;;;41.38;;
32347;SDS011;18821;44.800;10.326;2023-10-19T04:41:39;81.25;;;42.95;;
32347;SDS011;18821;44.800;10.326;2023-10-19T04:44:06;70.65;;;39.80;;
32347;SDS011;18821;44.800;10.326;2023-10-19T04:46:36;77.18;;;40.22;;
32347;SDS011;18821;44.800;10.326;2023-10-19T04:49:02;76.03;;;43.00;;
32347;SDS011;18821;44.800;10.326;2023-10-19T04:51:31;86.28;;;42.85;;
32347;SDS011;18821;44.800;10.326;2023-10-19T04:53:58;80.55;;;42.95;;
32347;SDS011;18821;44.800;10.326;2023-10-19T04:56:24;82.05;;;41.90;;
32347;SDS011;18821;44.800;10.326;2023-10-19T04:58:50;86.57;;;43.10;;
32347;SDS011;18821;44.800;10.326;2023-10-19T05:01:16;80.72;;;42.63;;
32347;SDS011;18821;44.800;10.326;2023-10-19T05:03:42;81.72;;;44.35;;
32347;SDS011;18821;44.800;10.326;2023-10-19T05:06:08;83.72;;;45.25;;
32347;SDS011;18821;44.800;10.326;2023-10-19T05:08:37;80.15;;;42.28;;
32347;SDS011;18821;44.800;10.326;2023-10-19T05:11:04;80.03;;;42.63;;
32347;SDS011;18821;44.800;10.326;2023-10-19T05:13:30;76.65;;;44.53;;
32347;SDS011;18821;44.800;10.326;2023-10-19T05:15:58;78.45;;;40.95;;
32347;SDS011;18821;44.800;10.326;2023-10-19T05:18:24;72.93;;;41.03;;
32347;SDS011;18821;44.800;10.326;2023-10-19T05:20:54;70.63;;;40.85;;
32347;SDS011;18821;44.800;10.326;2023-10-19T05:23:26;72.97;;;40.92;;
32347;SDS011;18821;44.800;10.326;2023-10-19T05:25:53;72.00;;;40.28;;
32347;SDS011;18821;44.800;10.326;2023-10-19T05:28:25;74.30;;;42.10;;
32347;SDS011;18821;44.800;10.326;2023-10-19T05:30:51;75.45;;;41.72;;
32347;SDS011;18821;44.800;10.326;2023-10-19T05:33:17;76.75;;;41.15;;
32347;SDS011;18821;44.800;10.326;2023-10-19T05:35:49;75.90;;;40.40;;
32347;SDS011;18821;44.800;10.326;2023-10-19T05:38:16;75.70;;;39.17;;
32347;SDS011;18821;44.800;10.326;2023-10-19T05:40:44;67.25;;;39.00;;
32347;SDS011;18821;44.800;10.326;2023-10-19T05:43:10;64.00;;;37.22;;
32347;SDS011;18821;44.800;10.326;2023-10-19T05:45:37;65.90;;;37.35;;
32347;SDS011;18821;44.800;10.326;2023-10-19T05:48:04;70.28;;;39.80;;
32347;SDS011;18821;44.800;10.326;2023-10-19T05:50:34;68.90;;;39.17;;
32347;SDS011;18821;44.800;10.326;2023-10-19T05:53:01;73.05;;;40.08;;
32347;SDS011;18821;44.800;10.326;2023-10-19T05:55:28;78.03;;;41.58;;
32347;SDS011;18821;44.800;10.326;2023-10-19T05:57:54;72.53;;;39.92;;
32347;SDS011;18821;44.800;10.326;2023-10-19T06:00:21;72.13;;;39.47;;
32347;SDS011;18821;44.800;10.326;2023-10-19T06:02:51;69.00;;;39.45;;
32347;SDS011;18821;44.800;10.326;2023-10-19T06:05:18;69.90;;;37.97;;
32347;SDS011;18821;44.800;10.326;2023-10-19T06:07:44;69.50;;;38.47;;
32347;SDS011;18821;44.800;10.326;2023-10-19T06:10:19;67.65;;;36.78;;
32347;SDS011;18821;44.800;10.326;2023-10-19T06:12:51;71.75;;;38.45;;
32347;SDS011;18821;44.800;10.326;2023-10-19T06:15:18;66.57;;;38.40;;
32347;SDS011;18821;44.800;10.326;2023-10-19T06:17:47;63.65;;;35.53;;
32347;SDS011;18821;44.800;10.326;2023-10-19T06:20:14;66.30;;;37.10;;
32347;SDS011;18821;44.800;10.326;2023-10-19T06:22:50;61.28;;;34.95;;
32347;SDS011;18821;44.800;10.326;2023-10-19T06:25:22;61.58;;;34.78;;
32347;SDS011;18821;44.800;10.326;2023-10-19T06:27:50;66.65;;;37.58;;
32347;SDS011;18821;44.800;10.326;2023-10-19T06:30:17;63.65;;;36.60;;
32347;SDS011;18821;44.800;10.326;2023-10-19T06:32:47;68.40;;;38.55;;
32347;SDS011;18821;44.800;10.326;2023-10-19T06:35:16;68.00;;;37.28;;
32347;SDS011;18821;44.800;10.326;2023-10-19T06:37:43;74.88;;;37.85;;
32347;SDS011;18821;44.800;10.326;2023-10-19T06:40:09;71.45;;;38.63;;
32347;SDS011;18821;44.800;10.326;2023-10-19T06:42:37;88.95;;;38.80;;
32347;SDS011;18821;44.800;10.326;2023-10-19T06:45:04;77.03;;;39.38;;
32347;SDS011;18821;44.800;10.326;2023-10-19T06:47:32;75.55;;;38.20;;
32347;SDS011;18821;44.800;10.326;2023-10-19T06:50:03;80.43;;;41.47;;
32347;SDS011;18821;44.800;10.326;2023-10-19T06:52:32;74.75;;;39.60;;
32347;SDS011;18821;44.800;10.326;2023-10-19T06:55:01;72.10;;;37.60;;
32347;SDS011;18821;44.800;10.326;2023-10-19T06:57:44;70.75;;;39.30;;
32347;SDS011;18821;44.800;10.326;2023-10-19T07:00:13;65.00;;;37.10;;
32347;SDS011;18821;44.800;10.326;2023-10-19T07:02:52;72.82;;;38.63;;
32347;SDS011;18821;44.800;10.326;2023-10-19T07:05:20;56.65;;;33.17;;
32347;SDS011;18821;44.800;10.326;2023-10-19T07:07:50;58.88;;;33.78;;
32347;SDS011;18821;44.800;10.326;2023-10-19T07:10:17;69.40;;;35.15;;
32347;SDS011;18821;44.800;10.326;2023-10-19T07:12:45;65.65;;;35.50;;
32347;SDS011;18821;44.800;10.326;2023-10-19T07:15:12;62.67;;;35.42;;
32347;SDS011;18821;44.800;10.326;2023-10-19T07:17:44;59.50;;;33.53;;
32347;SDS011;18821;44.800;10.326;2023-10-19T07:20:13;58.05;;;33.45;;
32347;SDS011;18821;44.800;10.326;2023-10-19T07:23:00;56.97;;;30.65;;
32347;SDS011;18821;44.800;10.326;2023-10-19T07:25:47;60.78;;;34.30;;
32347;SDS011;18821;44.800;10.326;2023-10-19T07:28:18;60.78;;;34.92;;
32347;SDS011;18821;44.800;10.326;2023-10-19T07:30:45;60.10;;;32.85;;
32347;SDS011;18821;44.800;10.326;2023-10-19T07:33:18;55.85;;;32.15;;
32347;SDS011;18821;44.800;10.326;2023-10-19T07:35:51;60.55;;;34.35;;
32347;SDS011;18821;44.800;10.326;2023-10-19T07:38:21;55.78;;;30.75;;
32347;SDS011;18821;44.800;10.326;2023-10-19T07:40:49;60.25;;;35.03;;
32347;SDS011;18821;44.800;10.326;2023-10-19T07:43:18;61.28;;;34.65;;
32347;SDS011;18821;44.800;10.326;2023-10-19T07:45:45;59.53;;;34.80;;
32347;SDS011;18821;44.800;10.326;2023-10-19T07:48:13;54.80;;;32.10;;
32347;SDS011;18821;44.800;10.326;2023-10-19T07:50:40;57.42;;;32.65;;
32347;SDS011;18821;44.800;10.326;2023-10-19T07:53:07;57.00;;;31.13;;
32347;SDS011;18821;44.800;10.326;2023-10-19T07:55:34;49.65;;;29.20;;
32347;SDS011;18821;44.800;10.326;2023-10-19T07:58:01;49.50;;;28.85;;
32347;SDS011;18821;44.800;10.326;2023-10-19T08:00:32;50.75;;;29.50;;
32347;SDS011;18821;44.800;10.326;2023-10-19T08:03:01;46.67;;;27.50;;
32347;SDS011;18821;44.800;10.326;2023-10-19T08:05:28;39.97;;;24.67;;
32347;SDS011;18821;44.800;10.326;2023-10-19T08:07:54;41.55;;;25.48;;
32347;SDS011;18821;44.800;10.326;2023-10-19T08:10:22;36.35;;;21.80;;
32347;SDS011;18821;44.800;10.326;2023-10-19T08:12:48;31.35;;;19.50;;
32347;SDS011;18821;44.800;10.326;2023-10-19T08:15:14;35.33;;;21.17;;
32347;SDS011;18821;44.800;10.326;2023-10-19T08:17:42;34.25;;;21.95;;
32347;SDS011;18821;44.800;10.326;2023-10-19T08:20:10;35.25;;;22.10;;
32347;SDS011;18821;44.800;10.326;2023-10-19T08:22:52;34.95;;;21.23;;
32347;SDS011;18821;44.800;10.326;2023-10-19T08:25:19;33.38;;;20.63;;
32347;SDS011;18821;44.800;10.326;2023-10-19T08:27:46;32.17;;;20.02;;
32347;SDS011;18821;44.800;10.326;2023-10-19T08:30:19;31.85;;;20.13;;
32347;SDS011;18821;44.800;10.326;2023-10-19T08:32:46;36.33;;;20.83;;
32347;SDS011;18821;44.800;10.326;2023-10-19T08:35:17;36.28;;;21.58;;
32347;SDS011;18821;44.800;10.326;2023-10-19T08:37:46;36.28;;;21.70;;
32347;SDS011;18821;44.800;10.326;2023-10-19T08:40:12;33.35;;;19.33;;
32347;SDS011;18821;44.800;10.326;2023-10-19T08:42:43;31.17;;;18.65;;
32347;SDS011;18821;44.800;10.326;2023-10-19T08:45:13;35.60;;;20.70;;
32347;SDS011;18821;44.800;10.326;2023-10-19T08:47:58;34.50;;;20.60;;
32347;SDS011;18821;44.800;10.326;2023-10-19T08:50:26;38.28;;;20.33;;
32347;SDS011;18821;44.800;10.326;2023-10-19T08:52:54;37.85;;;21.77;;
32347;SDS011;18821;44.800;10.326;2023-10-19T08:55:24;33.75;;;22.17;;
32347;SDS011;18821;44.800;10.326;2023-10-19T08:57:50;37.80;;;22.75;;
32347;SDS011;18821;44.800;10.326;2023-10-19T09:00:18;39.88;;;23.65;;
32347;SDS011;18821;44.800;10.326;2023-10-19T09:02:45;37.15;;;22.48;;
32347;SDS011;18821;44.800;10.326;2023-10-19T09:05:11;38.85;;;22.80;;
32347;SDS011;18821;44.800;10.326;2023-10-19T09:07:46;36.70;;;22.33;;
32347;SDS011;18821;44.800;10.326;2023-10-19T09:10:16;44.72;;;27.45;;
32347;SDS011;18821;44.800;10.326;2023-10-19T09:12:42;40.03;;;24.65;;
32347;SDS011;18821;44.800;10.326;2023-10-19T09:15:22;36.55;;;23.02;;
32347;SDS011;18821;44.800;10.326;2023-10-19T09:17:52;37.78;;;23.17;;
32347;SDS011;18821;44.800;10.326;2023-10-19T09:20:20;43.35;;;24.15;;
32347;SDS011;18821;44.800;10.326;2023-10-19T09:22:53;37.55;;;22.48;;
32347;SDS011;18821;44.800;10.326;2023-10-19T09:25:20;37.50;;;21.80;;
32347;SDS011;18821;44.800;10.326;2023-10-19T09:27:46;38.85;;;22.80;;
32347;SDS011;18821;44.800;10.326;2023-10-19T09:30:13;36.53;;;22.80;;
32347;SDS011;18821;44.800;10.326;2023-10-19T09:32:51;36.03;;;23.13;;
32347;SDS011;18821;44.800;10.326;2023-10-19T09:35:20;39.90;;;23.98;;
32347;SDS011;18821;44.800;10.326;2023-10-19T09:37:46;40.72;;;23.35;;
32347;SDS011;18821;44.800;10.326;2023-10-19T09:40:13;46.40;;;23.88;;
32347;SDS011;18821;44.800;10.326;2023-10-19T09:42:42;38.53;;;22.65;;
32347;SDS011;18821;44.800;10.326;2023-10-19T09:45:13;36.38;;;21.88;;
32347;SDS011;18821;44.800;10.326;2023-10-19T09:47:46;36.10;;;22.38;;
32347;SDS011;18821;44.800;10.326;2023-10-19T09:50:16;40.10;;;23.48;;
32347;SDS011;18821;44.800;10.326;2023-10-19T09:52:42;37.75;;;22.42;;
32347;SDS011;18821;44.800;10.326;2023-10-19T09:57:59;36.83;;;21.55;;
32347;SDS011;18821;44.800;10.326;2023-10-19T10:00:29;46.20;;;21.40;;
32347;SDS011;18821;44.800;10.326;2023-10-19T10:02:59;36.58;;;22.38;;
32347;SDS011;18821;44.800;10.326;2023-10-19T10:15:53;40.85;;;23.85;;
32347;SDS011;18821;44.800;10.326;2023-10-19T10:18:23;41.58;;;24.05;;
32347;SDS011;18821;44.800;10.326;2023-10-19T10:23:50;37.75;;;24.08;;
32347;SDS011;18821;44.800;10.326;2023-10-19T10:26:22;40.28;;;24.15;;
32347;SDS011;18821;44.800;10.326;2023-10-19T10:31:35;42.47;;;24.08;;
32347;SDS011;18821;44.800;10.326;2023-10-19T10:34:08;40.42;;;24.25;;
32347;SDS011;18821;44.800;10.326;2023-10-19T10:36:57;43.95;;;24.40;;
32347;SDS011;18821;44.800;10.326;2023-10-19T10:39:28;44.13;;;24.20;;
32347;SDS011;18821;44.800;10.326;2023-10-19T10:41:58;45.38;;;25.00;;
32347;SDS011;18821;44.800;10.326;2023-10-19T10:44:40;42.90;;;25.77;;
32347;SDS011;18821;44.800;10.326;2023-10-19T10:47:11;40.38;;;24.48;;
32347;SDS011;18821;44.800;10.326;2023-10-19T10:52:32;40.92;;;23.17;;
32347;SDS011;18821;44.800;10.326;2023-10-19T10:57:36;34.17;;;21.30;;
32347;SDS011;18821;44.800;10.326;2023-10-19T11:00:04;34.90;;;21.40;;
32347;SDS011;18821;44.800;10.326;2023-10-19T11:02:41;37.72;;;23.13;;
32347;SDS011;18821;44.800;10.326;2023-10-19T11:05:08;35.35;;;22.10;;
32347;SDS011;18821;44.800;10.326;2023-10-19T11:07:39;41.28;;;23.23;;
32347;SDS011;18821;44.800;10.326;2023-10-19T11:10:06;37.30;;;21.40;;
32347;SDS011;18821;44.800;10.326;2023-10-19T11:12:33;39.05;;;22.63;;
32347;SDS011;18821;44.800;10.326;2023-10-19T11:14:59;42.67;;;22.05;;
32347;SDS011;18821;44.800;10.326;2023-10-19T11:17:28;37.75;;;21.77;;
32347;SDS011;18821;44.800;10.326;2023-10-19T11:19:58;36.30;;;21.80;;
32347;SDS011;18821;44.800;10.326;2023-10-19T11:22:27;37.40;;;21.50;;
32347;SDS011;18821;44.800;10.326;2023-10-19T11:24:53;35.25;;;21.45;;
32347;SDS011;18821;44.800;10.326;2023-10-19T11:27:26;34.78;;;20.98;;
32347;SDS011;18821;44.800;10.326;2023-10-19T11:29:56;29.45;;;18.75;;
32347;SDS011;18821;44.800;10.326;2023-10-19T11:32:24;30.88;;;18.70;;
32347;SDS011;18821;44.800;10.326;2023-10-19T11:34:51;28.83;;;18.60;;
32347;SDS011;18821;44.800;10.326;2023-10-19T11:37:18;31.08;;;18.75;;
32347;SDS011;18821;44.800;10.326;2023-10-19T11:39:44;31.88;;;18.17;;
32347;SDS011;18821;44.800;10.326;2023-10-19T11:42:11;28.33;;;18.77;;
32347;SDS011;18821;44.800;10.326;2023-10-19T11:44:37;30.13;;;19.20;;
32347;SDS011;18821;44.800;10.326;2023-10-19T11:47:04;29.05;;;18.45;;
32347;SDS011;18821;44.800;10.326;2023-10-19T11:49:30;34.70;;;21.98;;
32347;SDS011;18821;44.800;10.326;2023-10-19T11:51:56;32.13;;;20.05;;
32347;SDS011;18821;44.800;10.326;2023-10-19T11:54:22;31.08;;;20.02;;
32347;SDS011;18821;44.800;10.326;2023-10-19T11:56:48;31.38;;;20.20;;
32347;SDS011;18821;44.800;10.326;2023-10-19T11:59:14;31.70;;;18.90;;
32347;SDS011;18821;44.800;10.326;2023-10-19T12:01:40;28.42;;;17.58;;
32347;SDS011;18821;44.800;10.326;2023-10-19T12:04:08;25.88;;;17.20;;
32347;SDS011;18821;44.800;10.326;2023-10-19T12:06:34;26.73;;;17.35;;
32347;SDS011;18821;44.800;10.326;2023-10-19T12:09:00;32.42;;;18.83;;
32347;SDS011;18821;44.800;10.326;2023-10-19T12:11:43;25.55;;;16.67;;
32347;SDS011;18821;44.800;10.326;2023-10-19T12:14:10;33.42;;;18.95;;
32347;SDS011;18821;44.800;10.326;2023-10-19T12:16:40;28.65;;;17.92;;
32347;SDS011;18821;44.800;10.326;2023-10-19T12:19:06;31.40;;;18.80;;
32347;SDS011;18821;44.800;10.326;2023-10-19T12:21:33;32.20;;;19.05;;
32347;SDS011;18821;44.800;10.326;2023-10-19T12:23:59;28.23;;;18.13;;
32347;SDS011;18821;44.800;10.326;2023-10-19T12:26:26;28.52;;;18.15;;
32347;SDS011;18821;44.800;10.326;2023-10-19T12:28:52;28.92;;;18.65;;
32347;SDS011;18821;44.800;10.326;2023-10-19T12:31:24;27.63;;;17.20;;
32347;SDS011;18821;44.800;10.326;2023-10-19T12:33:51;24.25;;;17.20;;
32347;SDS011;18821;44.800;10.326;2023-10-19T12:36:19;33.08;;;19.15;;
32347;SDS011;18821;44.800;10.326;2023-10-19T12:38:51;28.98;;;19.73;;
32347;SDS011;18821;44.800;10.326;2023-10-19T12:41:21;30.85;;;19.45;;
32347;SDS011;18821;44.800;10.326;2023-10-19T12:43:47;33.17;;;20.55;;
32347;SDS011;18821;44.800;10.326;2023-10-19T12:46:14;30.17;;;19.30;;
32347;SDS011;18821;44.800;10.326;2023-10-19T12:48:41;31.17;;;20.05;;
32347;SDS011;18821;44.800;10.326;2023-10-19T12:51:12;30.48;;;19.35;;
32347;SDS011;18821;44.800;10.326;2023-10-19T12:53:39;37.67;;;21.70;;
32347;SDS011;18821;44.800;10.326;2023-10-19T12:56:05;28.70;;;18.45;;
32347;SDS011;18821;44.800;10.326;2023-10-19T12:58:33;33.33;;;19.08;;
32347;SDS011;18821;44.800;10.326;2023-10-19T13:00:59;32.10;;;19.52;;
32347;SDS011;18821;44.800;10.326;2023-10-19T13:03:25;32.90;;;20.55;;
32347;SDS011;18821;44.800;10.326;2023-10-19T13:05:57;31.50;;;18.98;;
32347;SDS011;18821;44.800;10.326;2023-10-19T13:08:23;33.47;;;20.92;;
32347;SDS011;18821;44.800;10.326;2023-10-19T13:10:52;33.72;;;21.63;;
32347;SDS011;18821;44.800;10.326;2023-10-19T13:13:19;33.08;;;20.83;;
32347;SDS011;18821;44.800;10.326;2023-10-19T13:15:49;32.22;;;20.45;;
32347;SDS011;18821;44.800;10.326;2023-10-19T13:18:15;30.98;;;20.40;;
32347;SDS011;18821;44.800;10.326;2023-10-19T13:20:45;29.98;;;20.48;;
32347;SDS011;18821;44.800;10.326;2023-10-19T13:23:14;31.65;;;20.42;;
32347;SDS011;18821;44.800;10.326;2023-10-19T13:25:47;35.58;;;20.52;;
32347;SDS011;18821;44.800;10.326;2023-10-19T13:28:18;34.53;;;21.35;;
32347;SDS011;18821;44.800;10.326;2023-10-19T13:30:46;35.83;;;21.55;;
32347;SDS011;18821;44.800;10.326;2023-10-19T13:33:16;37.58;;;23.30;;
32347;SDS011;18821;44.800;10.326;2023-10-19T13:35:43;30.27;;;18.92;;
32347;SDS011;18821;44.800;10.326;2023-10-19T13:38:11;36.13;;;21.33;;
32347;SDS011;18821;44.800;10.326;2023-10-19T13:40:41;33.80;;;20.83;;
32347;SDS011;18821;44.800;10.326;2023-10-19T13:43:07;39.42;;;21.25;;
32347;SDS011;18821;44.800;10.326;2023-10-19T13:45:52;43.08;;;21.80;;
32347;SDS011;18821;44.800;10.326;2023-10-19T13:48:19;35.65;;;21.90;;
32347;SDS011;18821;44.800;10.326;2023-10-19T13:50:46;33.80;;;21.52;;
32347;SDS011;18821;44.800;10.326;2023-10-19T13:53:18;34.38;;;20.40;;
32347;SDS011;18821;44.800;10.326;2023-10-19T13:55:44;33.20;;;21.38;;
32347;SDS011;18821;44.800;10.326;2023-10-19T13:58:11;33.25;;;21.27;;
32347;SDS011;18821;44.800;10.326;2023-10-19T14:00:37;35.22;;;20.13;;
32347;SDS011;18821;44.800;10.326;2023-10-19T14:03:08;30.77;;;20.63;;
32347;SDS011;18821;44.800;10.326;2023-10-19T14:05:37;31.55;;;21.20;;
32347;SDS011;18821;44.800;10.326;2023-10-19T14:08:05;33.58;;;20.55;;
32347;SDS011;18821;44.800;10.326;2023-10-19T14:10:31;31.27;;;19.80;;
32347;SDS011;18821;44.800;10.326;2023-10-19T14:12:58;31.55;;;20.13;;
32347;SDS011;18821;44.800;10.326;2023-10-19T14:15:24;30.17;;;20.50;;
32347;SDS011;18821;44.800;10.326;2023-10-19T14:17:55;29.80;;;17.55;;
32347;SDS011;18821;44.800;10.326;2023-10-19T14:20:23;30.73;;;19.58;;
32347;SDS011;18821;44.800;10.326;2023-10-19T14:22:50;28.15;;;19.42;;
32347;SDS011;18821;44.800;10.326;2023-10-19T14:25:19;27.63;;;19.23;;
32347;SDS011;18821;44.800;10.326;2023-10-19T14:27:46;27.08;;;19.33;;
32347;SDS011;18821;44.800;10.326;2023-10-19T14:30:15;28.25;;;18.58;;
32347;SDS011;18821;44.800;10.326;2023-10-19T14:32:43;30.17;;;20.02;;
32347;SDS011;18821;44.800;10.326;2023-10-19T14:35:15;23.33;;;15.85;;
32347;SDS011;18821;44.800;10.326;2023-10-19T14:37:46;23.77;;;17.17;;
32347;SDS011;18821;44.800;10.326;2023-10-19T14:40:15;26.20;;;18.23;;
32347;SDS011;18821;44.800;10.326;2023-10-19T14:42:46;27.67;;;18.80;;
32347;SDS011;18821;44.800;10.326;2023-10-19T14:45:16;30.25;;;21.33;;
32347;SDS011;18821;44.800;10.326;2023-10-19T14:47:46;31.48;;;19.77;;
32347;SDS011;18821;44.800;10.326;2023-10-19T14:50:13;29.08;;;20.63;;
32347;SDS011;18821;44.800;10.326;2023-10-19T14:52:44;27.33;;;19.25;;
32347;SDS011;18821;44.800;10.326;2023-10-19T14:55:12;29.98;;;19.98;;